createdAt,value
2018-11-03T00:00:53.832Z,0.00
2018-11-03T00:01:53.844Z,0.00
2018-11-03T00:02:53.826Z,0.00
2018-11-03T00:03:53.799Z,0.00
2018-11-03T00:04:53.791Z,0.00
2018-11-03T00:05:53.780Z,0.00
2018-11-03T00:06:53.766Z,0.00
2018-11-03T00:07:53.791Z,0.00
2018-11-03T00:08:53.744Z,0.00
2018-11-03T00:09:53.732Z,0.00
2018-11-03T00:10:53.723Z,0.00
2018-11-03T00:11:53.734Z,0.00
2018-11-03T00:12:53.704Z,0.00
2018-11-03T00:13:53.709Z,0.00
2018-11-03T00:14:53.679Z,0.00
2018-11-03T00:15:53.670Z,0.00
2018-11-03T00:16:53.656Z,0.00
2018-11-03T00:17:53.643Z,0.00
2018-11-03T00:18:53.652Z,0.00
2018-11-03T00:19:53.636Z,0.00
2018-11-03T00:20:53.614Z,0.00
2018-11-03T00:21:53.601Z,0.00
2018-11-03T00:22:53.597Z,0.00
2018-11-03T00:23:53.598Z,0.00
2018-11-03T00:24:53.569Z,0.00
2018-11-03T00:25:53.560Z,0.00
2018-11-03T00:26:53.547Z,0.00
2018-11-03T00:27:53.542Z,0.00
2018-11-03T00:28:53.543Z,0.00
2018-11-03T00:29:53.515Z,0.00
2018-11-03T00:30:53.499Z,0.00
2018-11-03T00:31:53.490Z,0.00
2018-11-03T00:32:53.477Z,0.00
2018-11-03T00:33:53.482Z,0.00
2018-11-03T00:34:53.462Z,0.00
2018-11-03T00:35:53.446Z,0.00
2018-11-03T00:36:53.438Z,0.00
2018-11-03T00:37:53.424Z,0.00
2018-11-03T00:38:53.434Z,0.00
2018-11-03T00:39:53.405Z,0.00
2018-11-03T00:40:53.393Z,0.00
2018-11-03T00:41:53.378Z,0.00
2018-11-03T00:42:53.553Z,0.00
2018-11-03T00:43:53.373Z,0.00
2018-11-03T00:44:53.346Z,0.00
2018-11-03T00:45:53.333Z,0.00
2018-11-03T00:46:53.338Z,0.00
2018-11-03T00:47:53.315Z,0.00
2018-11-03T00:48:53.320Z,0.00
2018-11-03T00:49:53.291Z,0.00
2018-11-03T00:50:53.284Z,0.00
2018-11-03T00:51:53.267Z,0.00
2018-11-03T00:52:53.292Z,0.00
2018-11-03T00:53:53.266Z,0.00
2018-11-03T00:54:53.240Z,0.00
2018-11-03T00:55:53.227Z,0.00
2018-11-03T00:56:53.219Z,0.00
2018-11-03T00:57:53.203Z,0.00
2018-11-03T00:58:53.210Z,0.00
2018-11-03T00:59:53.184Z,0.00
2018-11-03T01:00:53.174Z,0.00
2018-11-03T01:01:53.192Z,0.00
2018-11-03T01:02:53.148Z,0.00
2018-11-03T01:03:53.155Z,0.00
2018-11-03T01:04:53.124Z,0.00
2018-11-03T01:05:53.124Z,0.00
2018-11-03T01:06:53.106Z,0.00
2018-11-03T01:07:53.093Z,0.00
2018-11-03T01:08:53.101Z,0.00
2018-11-03T01:09:53.076Z,0.00
2018-11-03T01:10:53.058Z,0.00
2018-11-03T01:11:53.059Z,0.00
2018-11-03T01:12:53.060Z,0.00
2018-11-03T01:13:53.042Z,0.00
2018-11-03T01:14:53.017Z,0.00
2018-11-03T01:15:53.005Z,0.00
2018-11-03T01:16:52.996Z,0.00
2018-11-03T01:17:52.981Z,0.00
2018-11-03T01:18:52.990Z,0.00
2018-11-03T01:19:52.961Z,0.00
2018-11-03T01:20:52.947Z,0.00
2018-11-03T01:21:52.937Z,0.00
2018-11-03T01:22:52.926Z,0.00
2018-11-03T01:23:52.964Z,0.00
2018-11-03T01:24:52.903Z,0.00
2018-11-03T01:25:52.891Z,0.00
2018-11-03T01:26:52.883Z,0.00
2018-11-03T01:27:52.874Z,0.00
2018-11-03T01:28:52.877Z,0.00
2018-11-03T01:29:52.851Z,0.00
2018-11-03T01:30:52.851Z,0.00
2018-11-03T01:31:52.836Z,0.00
2018-11-03T01:32:52.823Z,0.00
2018-11-03T01:33:52.834Z,0.00
2018-11-03T01:34:52.797Z,0.00
2018-11-03T01:35:52.786Z,0.00
2018-11-03T01:36:52.773Z,0.00
2018-11-03T01:37:52.769Z,0.00
2018-11-03T01:38:52.748Z,0.00
2018-11-03T01:39:52.756Z,0.00
2018-11-03T01:40:52.727Z,0.00
2018-11-03T01:41:52.715Z,0.00
2018-11-03T01:42:52.710Z,0.00
2018-11-03T01:43:52.699Z,0.00
2018-11-03T01:44:52.700Z,0.00
2018-11-03T01:45:52.672Z,0.00
2018-11-03T01:46:52.662Z,0.00
2018-11-03T01:47:52.652Z,0.00
2018-11-03T01:48:52.640Z,0.00
2018-11-03T01:49:52.651Z,0.00
2018-11-03T01:50:52.617Z,0.00
2018-11-03T01:51:52.609Z,0.00
2018-11-03T01:52:52.614Z,0.00
2018-11-03T01:53:52.590Z,0.00
2018-11-03T01:54:52.599Z,0.00
2018-11-03T01:55:52.562Z,0.00
2018-11-03T01:56:52.556Z,0.00
2018-11-03T01:57:52.544Z,0.00
2018-11-03T01:58:52.532Z,0.00
2018-11-03T01:59:52.539Z,0.00
2018-11-03T02:00:52.510Z,0.00
2018-11-03T02:01:52.498Z,0.00
2018-11-03T02:02:52.485Z,0.00
2018-11-03T02:03:52.478Z,0.00
2018-11-03T02:04:52.490Z,0.00
2018-11-03T02:05:52.457Z,0.00
2018-11-03T02:06:52.442Z,0.00
2018-11-03T02:07:52.431Z,0.00
2018-11-03T02:08:52.420Z,0.00
2018-11-03T02:09:52.438Z,0.00
2018-11-03T02:10:52.402Z,0.00
2018-11-03T02:11:52.402Z,0.00
2018-11-03T02:12:52.380Z,0.00
2018-11-03T02:13:52.387Z,0.00
2018-11-03T02:14:52.371Z,0.00
2018-11-03T02:15:52.343Z,0.00
2018-11-03T02:16:52.333Z,0.00
2018-11-03T02:17:52.321Z,0.00
2018-11-03T02:18:52.309Z,0.00
2018-11-03T02:19:52.320Z,0.00
2018-11-03T02:20:52.290Z,0.00
2018-11-03T02:21:52.314Z,0.00
2018-11-03T02:22:52.269Z,0.00
2018-11-03T02:23:52.259Z,0.00
2018-11-03T02:24:52.268Z,0.00
2018-11-03T02:25:52.234Z,0.00
2018-11-03T02:26:52.227Z,0.00
2018-11-03T02:27:52.214Z,0.00
2018-11-03T02:28:52.213Z,0.00
2018-11-03T02:29:52.207Z,0.00
2018-11-03T02:30:52.181Z,0.00
2018-11-03T02:31:52.177Z,0.00
2018-11-03T02:32:52.161Z,0.00
2018-11-03T02:33:52.145Z,0.00
2018-11-03T02:34:52.150Z,0.00
2018-11-03T02:35:52.132Z,0.00
2018-11-03T02:36:52.116Z,0.00
2018-11-03T02:37:52.101Z,0.00
2018-11-03T02:38:52.093Z,0.00
2018-11-03T02:39:52.109Z,0.00
2018-11-03T02:40:52.076Z,0.00
2018-11-03T02:41:52.057Z,0.00
2018-11-03T02:42:52.051Z,0.00
2018-11-03T02:43:52.035Z,0.00
2018-11-03T02:44:52.044Z,0.00
2018-11-03T02:45:52.049Z,0.00
2018-11-03T02:46:52.004Z,0.00
2018-11-03T02:47:51.995Z,0.00
2018-11-03T02:48:51.982Z,0.00
2018-11-03T02:49:52.006Z,0.00
2018-11-03T02:50:51.961Z,0.00
2018-11-03T02:51:51.949Z,0.00
2018-11-03T02:52:51.936Z,0.00
2018-11-03T02:53:51.933Z,0.00
2018-11-03T02:54:51.936Z,0.00
2018-11-03T02:55:51.903Z,0.00
2018-11-03T02:56:51.908Z,0.00
2018-11-03T02:57:51.882Z,0.00
2018-11-03T02:58:51.881Z,0.00
2018-11-03T02:59:51.875Z,0.00
2018-11-03T03:00:51.850Z,0.00
2018-11-03T03:01:51.836Z,0.00
2018-11-03T03:02:51.830Z,0.00
2018-11-03T03:03:51.826Z,0.00
2018-11-03T03:04:51.821Z,0.00
2018-11-03T03:05:51.796Z,0.00
2018-11-03T03:06:51.782Z,0.00
2018-11-03T03:07:51.775Z,0.00
2018-11-03T03:08:51.763Z,0.00
2018-11-03T03:09:51.767Z,0.00
2018-11-03T03:10:51.741Z,0.00
2018-11-03T03:11:51.735Z,0.00
2018-11-03T03:12:51.716Z,0.00
2018-11-03T03:13:51.719Z,0.00
2018-11-03T03:14:51.712Z,0.00
2018-11-03T03:15:51.683Z,0.00
2018-11-03T03:16:51.674Z,0.00
2018-11-03T03:17:51.672Z,0.00
2018-11-03T03:18:51.658Z,0.00
2018-11-03T03:19:51.666Z,0.00
2018-11-03T03:20:51.628Z,0.00
2018-11-03T03:21:51.623Z,0.00
2018-11-03T03:22:51.612Z,0.00
2018-11-03T03:23:51.600Z,0.00
2018-11-03T03:24:51.601Z,0.00
2018-11-03T03:25:51.575Z,0.00
2018-11-03T03:26:51.566Z,0.00
2018-11-03T03:27:51.552Z,0.00
2018-11-03T03:28:51.576Z,0.00
2018-11-03T03:29:51.552Z,0.00
2018-11-03T03:30:51.522Z,0.00
2018-11-03T03:31:51.510Z,0.00
2018-11-03T03:32:51.500Z,0.00
2018-11-03T03:33:51.496Z,0.00
2018-11-03T03:34:51.499Z,0.00
2018-11-03T03:35:51.467Z,0.00
2018-11-03T03:36:51.455Z,0.00
2018-11-03T03:37:51.446Z,0.00
2018-11-03T03:38:51.433Z,0.00
2018-11-03T03:39:51.477Z,0.00
2018-11-03T03:40:51.415Z,0.00
2018-11-03T03:41:51.400Z,0.00
2018-11-03T03:42:51.398Z,0.00
2018-11-03T03:43:51.381Z,0.00
2018-11-03T03:44:51.387Z,0.00
2018-11-03T03:45:51.355Z,0.00
2018-11-03T03:46:51.345Z,0.00
2018-11-03T03:47:51.335Z,0.00
2018-11-03T03:48:51.324Z,0.00
2018-11-03T03:49:51.328Z,0.00
2018-11-03T03:50:51.300Z,0.00
2018-11-03T03:51:51.314Z,0.00
2018-11-03T03:52:51.305Z,0.00
2018-11-03T03:53:51.275Z,0.00
2018-11-03T03:54:51.273Z,0.00
2018-11-03T03:55:51.245Z,0.00
2018-11-03T03:56:51.237Z,0.00
2018-11-03T03:57:51.222Z,0.00
2018-11-03T03:58:51.211Z,0.00
2018-11-03T03:59:51.217Z,0.00
2018-11-03T04:00:51.198Z,0.00
2018-11-03T04:01:51.184Z,0.00
2018-11-03T04:02:51.238Z,0.00
2018-11-03T04:03:51.157Z,0.00
2018-11-03T04:04:51.162Z,0.00
2018-11-03T04:05:51.137Z,0.00
2018-11-03T04:06:51.129Z,0.00
2018-11-03T04:07:51.115Z,0.00
2018-11-03T04:08:51.105Z,0.00
2018-11-03T04:09:51.110Z,0.00
2018-11-03T04:10:51.082Z,0.00
2018-11-03T04:11:51.075Z,0.00
2018-11-03T04:12:51.057Z,0.00
2018-11-03T04:13:51.049Z,0.00
2018-11-03T04:14:51.059Z,0.00
2018-11-03T04:15:51.023Z,0.00
2018-11-03T04:16:51.014Z,0.00
2018-11-03T04:17:51.004Z,0.00
2018-11-03T04:18:51.004Z,0.00
2018-11-03T04:19:51.006Z,0.00
2018-11-03T04:20:50.981Z,0.00
2018-11-03T04:21:50.959Z,0.00
2018-11-03T04:22:50.949Z,0.00
2018-11-03T04:23:50.941Z,0.00
2018-11-03T04:24:50.940Z,0.00
2018-11-03T04:25:50.916Z,0.00
2018-11-03T04:26:50.909Z,0.00
2018-11-03T04:27:50.896Z,0.00
2018-11-03T04:28:50.887Z,0.00
2018-11-03T04:29:50.887Z,0.00
2018-11-03T04:30:50.876Z,0.00
2018-11-03T04:31:50.851Z,0.00
2018-11-03T04:32:50.844Z,0.00
2018-11-03T04:33:50.829Z,0.00
2018-11-03T04:34:50.833Z,0.00
2018-11-03T04:35:50.805Z,0.00
2018-11-03T04:36:50.794Z,0.00
2018-11-03T04:37:50.788Z,0.00
2018-11-03T04:38:50.787Z,0.00
2018-11-03T04:39:50.785Z,0.00
2018-11-03T04:40:50.752Z,0.00
2018-11-03T04:41:50.744Z,0.00
2018-11-03T04:42:50.741Z,0.00
2018-11-03T04:43:50.725Z,0.00
2018-11-03T04:44:50.738Z,0.00
2018-11-03T04:45:50.697Z,0.00
2018-11-03T04:46:50.690Z,0.00
2018-11-03T04:47:50.717Z,0.00
2018-11-03T04:48:50.664Z,0.00
2018-11-03T04:49:50.658Z,0.00
2018-11-03T04:50:50.655Z,0.00
2018-11-03T04:51:50.631Z,0.00
2018-11-03T04:52:50.622Z,0.00
2018-11-03T04:53:50.613Z,0.00
2018-11-03T04:54:50.600Z,0.00
2018-11-03T04:55:50.616Z,0.00
2018-11-03T04:56:50.578Z,0.00
2018-11-03T04:57:50.562Z,0.00
2018-11-03T04:58:50.554Z,0.00
2018-11-03T04:59:50.542Z,0.00
2018-11-03T05:00:50.563Z,0.00
2018-11-03T05:01:50.523Z,0.00
2018-11-03T05:02:50.537Z,0.00
2018-11-03T05:03:50.499Z,0.00
2018-11-03T05:04:50.487Z,0.00
2018-11-03T05:05:50.499Z,0.00
2018-11-03T05:06:50.466Z,0.00
2018-11-03T05:07:50.473Z,0.00
2018-11-03T05:08:50.442Z,0.00
2018-11-03T05:09:50.499Z,0.00
2018-11-03T05:10:50.441Z,0.00
2018-11-03T05:11:50.412Z,0.00
2018-11-03T05:12:50.404Z,0.00
2018-11-03T05:13:50.398Z,0.00
2018-11-03T05:14:50.377Z,0.00
2018-11-03T05:15:50.423Z,0.00
2018-11-03T05:16:50.358Z,0.00
2018-11-03T05:17:50.346Z,0.00
2018-11-03T05:18:50.331Z,0.00
2018-11-03T05:19:50.321Z,0.00
2018-11-03T05:20:50.326Z,0.00
2018-11-03T05:21:50.303Z,0.00
2018-11-03T05:22:50.288Z,0.00
2018-11-03T05:23:50.277Z,0.00
2018-11-03T05:24:50.267Z,0.00
2018-11-03T05:25:50.273Z,0.00
2018-11-03T05:26:50.254Z,0.00
2018-11-03T05:27:50.237Z,0.00
2018-11-03T05:28:50.225Z,0.00
2018-11-03T05:29:50.213Z,0.00
2018-11-03T05:30:50.218Z,0.00
2018-11-03T05:31:50.195Z,0.00
2018-11-03T05:32:50.181Z,0.00
2018-11-03T05:33:50.170Z,0.00
2018-11-03T05:34:50.182Z,0.00
2018-11-03T05:35:50.164Z,0.00
2018-11-03T05:36:50.140Z,0.00
2018-11-03T05:37:50.122Z,0.00
2018-11-03T05:38:50.125Z,0.00
2018-11-03T05:39:50.109Z,0.00
2018-11-03T05:40:50.112Z,0.00
2018-11-03T05:41:50.080Z,0.00
2018-11-03T05:42:50.072Z,0.00
2018-11-03T05:43:50.059Z,0.00
2018-11-03T05:44:50.053Z,0.00
2018-11-03T05:45:50.052Z,0.00
2018-11-03T05:46:50.034Z,0.00
2018-11-03T05:47:50.017Z,0.00
2018-11-03T05:48:50.004Z,0.00
2018-11-03T05:49:49.994Z,0.00
2018-11-03T05:50:49.994Z,0.00
2018-11-03T05:51:49.968Z,4.00
2018-11-03T05:52:49.957Z,4.00
2018-11-03T05:53:49.956Z,4.00
2018-11-03T05:54:49.940Z,4.00
2018-11-03T05:55:49.940Z,4.00
2018-11-03T05:56:49.914Z,4.00
2018-11-03T05:57:49.916Z,4.00
2018-11-03T05:58:49.900Z,8.00
2018-11-03T05:59:49.888Z,4.00
2018-11-03T06:00:49.889Z,8.00
2018-11-03T06:01:49.863Z,8.00
2018-11-03T06:02:49.848Z,8.00
2018-11-03T06:03:49.838Z,12.00
2018-11-03T06:04:49.830Z,12.00
2018-11-03T06:05:49.835Z,12.00
2018-11-03T06:06:49.806Z,16.00
2018-11-03T06:07:49.797Z,16.00
2018-11-03T06:08:49.872Z,16.00
2018-11-03T06:09:49.775Z,24.00
2018-11-03T06:10:49.778Z,20.00
2018-11-03T06:11:49.754Z,28.00
2018-11-03T06:12:49.740Z,28.00
2018-11-03T06:13:49.728Z,28.00
2018-11-03T06:14:49.721Z,28.00
2018-11-03T06:15:49.722Z,32.00
2018-11-03T06:16:49.697Z,32.00
2018-11-03T06:17:49.686Z,32.00
2018-11-03T06:18:49.674Z,36.00
2018-11-03T06:19:49.669Z,32.00
2018-11-03T06:20:49.665Z,36.00
2018-11-03T06:21:49.638Z,36.00
2018-11-03T06:22:49.634Z,40.00
2018-11-03T06:23:49.618Z,40.00
2018-11-03T06:24:49.604Z,44.00
2018-11-03T06:25:49.614Z,44.00
2018-11-03T06:26:49.584Z,44.00
2018-11-03T06:27:49.609Z,52.00
2018-11-03T06:28:49.559Z,52.00
2018-11-03T06:29:49.548Z,52.00
2018-11-03T06:30:49.553Z,56.00
2018-11-03T06:31:49.526Z,56.00
2018-11-03T06:32:49.515Z,60.00
2018-11-03T06:33:49.521Z,64.00
2018-11-03T06:34:49.502Z,68.00
2018-11-03T06:35:49.498Z,68.00
2018-11-03T06:36:49.471Z,68.00
2018-11-03T06:37:49.478Z,68.00
2018-11-03T06:38:49.512Z,68.00
2018-11-03T06:39:49.437Z,72.00
2018-11-03T06:40:49.465Z,72.00
2018-11-03T06:41:49.431Z,76.00
2018-11-03T06:42:49.422Z,76.00
2018-11-03T06:43:49.393Z,80.00
2018-11-03T06:44:49.381Z,84.00
2018-11-03T06:45:49.386Z,88.00
2018-11-03T06:46:49.360Z,96.00
2018-11-03T06:47:49.353Z,96.00
2018-11-03T06:48:49.344Z,96.00
2018-11-03T06:49:49.329Z,96.00
2018-11-03T06:50:49.331Z,96.00
2018-11-03T06:51:49.304Z,96.00
2018-11-03T06:52:49.293Z,100.00
2018-11-03T06:53:49.280Z,96.00
2018-11-03T06:54:49.270Z,104.00
2018-11-03T06:55:49.291Z,112.00
2018-11-03T06:56:49.250Z,116.00
2018-11-03T06:57:49.239Z,124.00
2018-11-03T06:58:49.228Z,128.00
2018-11-03T06:59:49.228Z,128.00
2018-11-03T07:00:49.219Z,124.00
2018-11-03T07:01:49.222Z,128.00
2018-11-03T07:02:49.189Z,124.00
2018-11-03T07:03:49.170Z,128.00
2018-11-03T07:04:49.171Z,128.00
2018-11-03T07:05:49.166Z,136.00
2018-11-03T07:06:49.142Z,148.00
2018-11-03T07:07:49.138Z,160.00
2018-11-03T07:08:49.116Z,164.00
2018-11-03T07:09:49.110Z,168.00
2018-11-03T07:10:49.203Z,168.00
2018-11-03T07:11:49.092Z,172.00
2018-11-03T07:12:49.196Z,172.00
2018-11-03T07:13:49.077Z,176.00
2018-11-03T07:14:49.049Z,184.00
2018-11-03T07:15:49.062Z,188.00
2018-11-03T07:16:49.028Z,192.00
2018-11-03T07:17:49.023Z,196.00
2018-11-03T07:18:49.007Z,196.00
2018-11-03T07:19:48.995Z,192.00
2018-11-03T07:20:49.012Z,196.00
2018-11-03T07:21:49.118Z,204.00
2018-11-03T07:22:48.962Z,204.00
2018-11-03T07:23:48.949Z,212.00
2018-11-03T07:24:48.941Z,224.00
2018-11-03T07:25:48.944Z,240.00
2018-11-03T07:26:48.919Z,248.00
2018-11-03T07:27:48.908Z,264.00
2018-11-03T07:28:48.904Z,268.00
2018-11-03T07:29:48.985Z,272.00
2018-11-03T07:30:48.890Z,272.00
2018-11-03T07:31:48.864Z,268.00
2018-11-03T07:32:48.858Z,280.00
2018-11-03T07:33:48.841Z,296.00
2018-11-03T07:34:48.851Z,296.00
2018-11-03T07:35:48.841Z,300.00
2018-11-03T07:36:48.807Z,292.00
2018-11-03T07:37:48.796Z,296.00
2018-11-03T07:38:48.787Z,308.00
2018-11-03T07:39:48.776Z,320.00
2018-11-03T07:40:48.866Z,340.00
2018-11-03T07:41:48.753Z,356.00
2018-11-03T07:42:48.789Z,392.00
2018-11-03T07:43:48.731Z,404.00
2018-11-03T07:44:48.723Z,420.00
2018-11-03T07:45:48.724Z,432.00
2018-11-03T07:46:48.711Z,448.00
2018-11-03T07:47:48.692Z,476.00
2018-11-03T07:48:48.872Z,508.00
2018-11-03T07:49:48.665Z,548.00
2018-11-03T07:50:48.669Z,624.00
2018-11-03T07:51:48.648Z,656.00
2018-11-03T07:52:48.645Z,620.00
2018-11-03T07:53:48.623Z,628.00
2018-11-03T07:54:48.665Z,648.00
2018-11-03T07:55:48.631Z,648.00
2018-11-03T07:56:48.589Z,644.00
2018-11-03T07:57:48.575Z,632.00
2018-11-03T07:58:48.578Z,632.00
2018-11-03T07:59:48.558Z,668.00
2018-11-03T08:00:48.545Z,668.00
2018-11-03T08:01:48.560Z,680.00
2018-11-03T08:02:48.520Z,692.00
2018-11-03T08:03:48.548Z,700.00
2018-11-03T08:04:48.511Z,696.00
2018-11-03T08:05:48.491Z,676.00
2018-11-03T08:06:48.502Z,676.00
2018-11-03T08:07:48.466Z,668.00
2018-11-03T08:08:48.477Z,724.00
2018-11-03T08:09:48.445Z,724.00
2018-11-03T08:10:48.444Z,748.00
2018-11-03T08:11:48.716Z,732.00
2018-11-03T08:12:48.413Z,728.00
2018-11-03T08:13:48.403Z,768.00
2018-11-03T08:14:48.404Z,788.00
2018-11-03T08:15:48.499Z,812.00
2018-11-03T08:16:48.934Z,784.00
2018-11-03T08:17:48.359Z,768.00
2018-11-03T08:18:48.346Z,796.00
2018-11-03T08:19:48.334Z,808.00
2018-11-03T08:20:51.532Z,824.00
2018-11-03T08:21:48.329Z,824.00
2018-11-03T08:22:48.304Z,828.00
2018-11-03T08:23:48.316Z,836.00
2018-11-03T08:24:48.283Z,832.00
2018-11-03T08:25:48.270Z,848.00
2018-11-03T08:26:48.299Z,856.00
2018-11-03T08:27:48.250Z,908.00
2018-11-03T08:28:48.235Z,928.00
2018-11-03T08:29:48.224Z,956.00
2018-11-03T08:30:48.215Z,948.00
2018-11-03T08:31:48.229Z,956.00
2018-11-03T08:32:48.205Z,948.00
2018-11-03T08:33:48.181Z,932.00
2018-11-03T08:34:48.172Z,964.00
2018-11-03T08:35:48.165Z,988.00
2018-11-03T08:36:48.164Z,1016.00
2018-11-03T08:37:48.170Z,1020.00
2018-11-03T08:38:48.131Z,976.00
2018-11-03T08:39:48.164Z,948.00
2018-11-03T08:40:48.105Z,960.00
2018-11-03T08:41:48.126Z,948.00
2018-11-03T08:42:48.082Z,920.00
2018-11-03T08:43:48.138Z,896.00
2018-11-03T08:44:48.060Z,880.00
2018-11-03T08:45:48.052Z,892.00
2018-11-03T08:46:48.055Z,960.00
2018-11-03T08:47:48.029Z,1048.00
2018-11-03T08:48:48.170Z,1132.00
2018-11-03T08:49:48.008Z,1156.00
2018-11-03T08:50:47.995Z,1104.00
2018-11-03T08:51:48.121Z,1012.00
2018-11-03T08:52:47.975Z,932.00
2018-11-03T08:53:47.970Z,900.00
2018-11-03T08:54:47.951Z,904.00
2018-11-03T08:55:47.940Z,952.00
2018-11-03T08:56:48.251Z,944.00
2018-11-03T08:57:47.920Z,964.00
2018-11-03T08:58:47.917Z,1012.00
2018-11-03T08:59:48.093Z,1008.00
2018-11-03T09:00:47.885Z,1032.00
2018-11-03T09:01:47.888Z,1064.00
2018-11-03T09:02:47.864Z,1016.00
2018-11-03T09:03:48.164Z,928.00
2018-11-03T09:04:48.629Z,984.00
2018-11-03T09:05:47.830Z,980.00
2018-11-03T09:06:47.844Z,996.00
2018-11-03T09:07:47.932Z,1124.00
2018-11-03T09:08:47.799Z,1160.00
2018-11-03T09:09:47.971Z,1112.00
2018-11-03T09:10:47.776Z,1048.00
2018-11-03T09:11:47.779Z,992.00
2018-11-03T09:12:47.753Z,1028.00
2018-11-03T09:13:47.743Z,1048.00
2018-11-03T09:14:47.862Z,1088.00
2018-11-03T09:15:47.724Z,1144.00
2018-11-03T09:16:47.725Z,1156.00
2018-11-03T09:17:47.699Z,1000.00
2018-11-03T09:18:47.843Z,924.00
2018-11-03T09:19:48.380Z,980.00
2018-11-03T09:20:48.775Z,888.00
2018-11-03T09:21:47.692Z,816.00
2018-11-03T09:22:47.779Z,840.00
2018-11-03T09:23:47.632Z,788.00
2018-11-03T09:24:47.621Z,752.00
2018-11-03T09:25:47.625Z,796.00
2018-11-03T09:26:47.615Z,828.00
2018-11-03T09:27:47.589Z,844.00
2018-11-03T09:28:47.599Z,1044.00
2018-11-03T09:29:47.568Z,1380.00
2018-11-03T09:30:47.558Z,1292.00
2018-11-03T09:31:48.136Z,1344.00
2018-11-03T09:32:47.532Z,1284.00
2018-11-03T09:33:47.526Z,1576.00
2018-11-03T09:34:47.587Z,1596.00
2018-11-03T09:35:47.501Z,1400.00
2018-11-03T09:36:47.507Z,1444.00
2018-11-03T09:37:47.490Z,1340.00
2018-11-03T09:38:47.614Z,1556.00
2018-11-03T09:39:47.462Z,1592.00
2018-11-03T09:40:47.449Z,1332.00
2018-11-03T09:41:47.461Z,1200.00
2018-11-03T09:42:47.464Z,1184.00
2018-11-03T09:43:47.416Z,1420.00
2018-11-03T09:44:47.464Z,1620.00
2018-11-03T09:45:47.393Z,1516.00
2018-11-03T09:46:47.397Z,1992.00
2018-11-03T09:47:47.376Z,1924.00
2018-11-03T09:48:47.365Z,2112.00
2018-11-03T09:49:47.350Z,1868.00
2018-11-03T09:50:47.417Z,1460.00
2018-11-03T09:51:47.343Z,1368.00
2018-11-03T09:52:47.316Z,1396.00
2018-11-03T09:53:47.309Z,1424.00
2018-11-03T09:54:47.296Z,1392.00
2018-11-03T09:55:47.284Z,1480.00
2018-11-03T09:56:47.376Z,1804.00
2018-11-03T09:57:47.261Z,2100.00
2018-11-03T09:58:47.265Z,1936.00
2018-11-03T09:59:47.241Z,1976.00
2018-11-03T10:00:47.229Z,1988.00
2018-11-03T10:01:47.244Z,1892.00
2018-11-03T10:02:47.208Z,1928.00
2018-11-03T10:03:47.197Z,2124.00
2018-11-03T10:04:47.195Z,1952.00
2018-11-03T10:05:47.175Z,1792.00
2018-11-03T10:06:47.180Z,1884.00
2018-11-03T10:07:47.152Z,1680.00
2018-11-03T10:08:47.144Z,1612.00
2018-11-03T10:09:47.140Z,1472.00
2018-11-03T10:10:47.120Z,1408.00
2018-11-03T10:11:47.125Z,1536.00
2018-11-03T10:12:47.099Z,1596.00
2018-11-03T10:13:47.090Z,1784.00
2018-11-03T10:14:47.077Z,1940.00
2018-11-03T10:15:47.129Z,2112.00
2018-11-03T10:16:47.070Z,1952.00
2018-11-03T10:17:47.055Z,1936.00
2018-11-03T10:18:47.033Z,2032.00
2018-11-03T10:19:47.022Z,2072.00
2018-11-03T10:20:47.012Z,2008.00
2018-11-03T10:21:47.086Z,2196.00
2018-11-03T10:22:47.058Z,2276.00
2018-11-03T10:23:46.982Z,2192.00
2018-11-03T10:24:46.970Z,2120.00
2018-11-03T10:25:46.957Z,2052.00
2018-11-03T10:26:46.963Z,2140.00
2018-11-03T10:27:46.940Z,2268.00
2018-11-03T10:28:46.938Z,2384.00
2018-11-03T10:29:46.941Z,2500.00
2018-11-03T10:30:46.904Z,2608.00
2018-11-03T10:31:46.913Z,2568.00
2018-11-03T10:32:46.890Z,2540.00
2018-11-03T10:33:47.034Z,2080.00
2018-11-03T10:34:46.880Z,2024.00
2018-11-03T10:35:46.899Z,2244.00
2018-11-03T10:36:46.893Z,2388.00
2018-11-03T10:37:46.832Z,2124.00
2018-11-03T10:38:46.828Z,2312.00
2018-11-03T10:39:46.817Z,2576.00
2018-11-03T10:40:46.798Z,2252.00
2018-11-03T10:41:46.787Z,1804.00
2018-11-03T10:42:46.798Z,1952.00
2018-11-03T10:43:46.768Z,2100.00
2018-11-03T10:44:46.788Z,1800.00
2018-11-03T10:45:46.749Z,1652.00
2018-11-03T10:46:46.744Z,1928.00
2018-11-03T10:47:46.807Z,1984.00
2018-11-03T10:48:46.714Z,2080.00
2018-11-03T10:49:46.701Z,2144.00
2018-11-03T10:50:46.705Z,2248.00
2018-11-03T10:51:46.684Z,2140.00
2018-11-03T10:52:46.685Z,1840.00
2018-11-03T10:53:46.748Z,1952.00
2018-11-03T10:54:46.646Z,2336.00
2018-11-03T10:55:46.676Z,2536.00
2018-11-03T10:56:46.627Z,4340.00
2018-11-03T10:57:46.633Z,3044.00
2018-11-03T10:58:46.611Z,2524.00
2018-11-03T10:59:46.599Z,2024.00
2018-11-03T11:00:46.596Z,1772.00
2018-11-03T11:01:46.573Z,1656.00
2018-11-03T11:02:46.581Z,1584.00
2018-11-03T11:03:46.742Z,1648.00
2018-11-03T11:04:46.557Z,1680.00
2018-11-03T11:05:46.529Z,1560.00
2018-11-03T11:06:46.521Z,1560.00
2018-11-03T11:07:46.527Z,1576.00
2018-11-03T11:08:46.503Z,1608.00
2018-11-03T11:09:46.490Z,1568.00
2018-11-03T11:10:46.520Z,1608.00
2018-11-03T11:11:46.470Z,1808.00
2018-11-03T11:12:46.474Z,1808.00
2018-11-03T11:13:46.450Z,1700.00
2018-11-03T11:14:46.440Z,2032.00
2018-11-03T11:15:46.439Z,2344.00
2018-11-03T11:16:46.431Z,2144.00
2018-11-03T11:17:46.461Z,1780.00
2018-11-03T11:18:46.394Z,1928.00
2018-11-03T11:19:46.384Z,2444.00
2018-11-03T11:20:46.371Z,2680.00
2018-11-03T11:21:46.725Z,2272.00
2018-11-03T11:22:46.365Z,1952.00
2018-11-03T11:23:46.367Z,1848.00
2018-11-03T11:24:46.438Z,1728.00
2018-11-03T11:25:46.332Z,1680.00
2018-11-03T11:26:46.307Z,1616.00
2018-11-03T11:27:46.311Z,1428.00
2018-11-03T11:28:46.289Z,1596.00
2018-11-03T11:29:46.275Z,2172.00
2018-11-03T11:30:46.265Z,2052.00
2018-11-03T11:31:46.265Z,1656.00
2018-11-03T11:32:46.308Z,1716.00
2018-11-03T11:33:46.232Z,1732.00
2018-11-03T11:34:46.222Z,1800.00
2018-11-03T11:35:46.223Z,2024.00
2018-11-03T11:36:46.201Z,1792.00
2018-11-03T11:37:46.835Z,1900.00
2018-11-03T11:38:46.372Z,1912.00
2018-11-03T11:39:46.192Z,1684.00
2018-11-03T11:40:46.159Z,1544.00
2018-11-03T11:41:46.150Z,1676.00
2018-11-03T11:42:46.180Z,1828.00
2018-11-03T11:43:46.143Z,1648.00
2018-11-03T11:44:46.120Z,1864.00
2018-11-03T11:45:46.114Z,2476.00
2018-11-03T11:46:46.097Z,2060.00
2018-11-03T11:47:46.086Z,1772.00
2018-11-03T11:48:46.108Z,1612.00
2018-11-03T11:49:46.067Z,1524.00
2018-11-03T11:50:46.065Z,1300.00
2018-11-03T11:51:46.043Z,1124.00
2018-11-03T11:52:46.034Z,1100.00
2018-11-03T11:53:46.041Z,1260.00
2018-11-03T11:54:46.053Z,1540.00
2018-11-03T11:55:46.002Z,1980.00
2018-11-03T11:56:46.014Z,2444.00
2018-11-03T11:57:45.991Z,2868.00
2018-11-03T11:58:45.985Z,2804.00
2018-11-03T11:59:45.964Z,2824.00
2018-11-03T12:00:46.023Z,1660.00
2018-11-03T12:01:45.944Z,1516.00
2018-11-03T12:02:45.929Z,1452.00
2018-11-03T12:03:45.934Z,2220.00
2018-11-03T12:04:45.913Z,2352.00
2018-11-03T12:05:45.896Z,2448.00
2018-11-03T12:06:45.885Z,1996.00
2018-11-03T12:07:45.875Z,1616.00
2018-11-03T12:08:45.882Z,1508.00
2018-11-03T12:09:45.855Z,2172.00
2018-11-03T12:10:45.850Z,3660.00
2018-11-03T12:11:45.832Z,2716.00
2018-11-03T12:12:45.823Z,2156.00
2018-11-03T12:13:45.829Z,2196.00
2018-11-03T12:14:45.803Z,2300.00
2018-11-03T12:15:45.789Z,2620.00
2018-11-03T12:16:45.780Z,2348.00
2018-11-03T12:17:45.789Z,2080.00
2018-11-03T12:18:45.784Z,1852.00
2018-11-03T12:19:45.762Z,1956.00
2018-11-03T12:20:45.738Z,1712.00
2018-11-03T12:21:45.735Z,1396.00
2018-11-03T12:22:45.721Z,1280.00
2018-11-03T12:23:45.722Z,1288.00
2018-11-03T12:24:45.698Z,1528.00
2018-11-03T12:25:45.806Z,1484.00
2018-11-03T12:26:45.704Z,1288.00
2018-11-03T12:27:45.664Z,1204.00
2018-11-03T12:28:45.669Z,1020.00
2018-11-03T12:29:45.643Z,868.00
2018-11-03T12:30:45.630Z,740.00
2018-11-03T12:31:45.625Z,632.00
2018-11-03T12:32:45.617Z,592.00
2018-11-03T12:33:45.616Z,636.00
2018-11-03T12:34:45.589Z,636.00
2018-11-03T12:35:45.579Z,756.00
2018-11-03T12:36:45.568Z,952.00
2018-11-03T12:37:45.558Z,992.00
2018-11-03T12:38:45.590Z,952.00
2018-11-03T12:39:45.536Z,920.00
2018-11-03T12:40:45.601Z,880.00
2018-11-03T12:41:45.518Z,880.00
2018-11-03T12:42:45.504Z,892.00
2018-11-03T12:43:45.496Z,896.00
2018-11-03T12:44:45.512Z,820.00
2018-11-03T12:45:45.523Z,816.00
2018-11-03T12:46:45.465Z,812.00